createdAt,value
2017-07-03T00:01:06.037Z,90.30
2017-07-03T00:03:34.445Z,90.30
2017-07-03T00:06:01.974Z,90.10
2017-07-03T00:08:29.536Z,90.30
2017-07-03T00:10:57.057Z,90.00
2017-07-03T00:13:24.585Z,90.00
2017-07-03T00:15:52.143Z,90.00
2017-07-03T00:18:19.661Z,89.60
2017-07-03T00:20:47.184Z,89.50
2017-07-03T00:23:14.735Z,90.00
2017-07-03T00:25:42.264Z,90.30
2017-07-03T00:28:09.824Z,89.80
2017-07-03T00:30:37.343Z,90.60
2017-07-03T00:33:04.872Z,89.80
2017-07-03T00:35:33.206Z,90.10
2017-07-03T00:38:00.739Z,89.80
2017-07-03T00:40:28.276Z,89.00
2017-07-03T00:42:56.593Z,90.00
2017-07-03T00:45:24.116Z,90.00
2017-07-03T00:47:51.630Z,89.50
2017-07-03T00:50:19.189Z,90.20
2017-07-03T00:52:46.711Z,90.70
2017-07-03T00:55:14.255Z,90.50
2017-07-03T00:57:41.816Z,91.00
2017-07-03T01:00:09.341Z,90.70
2017-07-03T01:02:36.864Z,90.00
2017-07-03T01:05:04.432Z,90.10
2017-07-03T01:07:31.947Z,90.00
2017-07-03T01:09:59.456Z,90.20
2017-07-03T01:12:27.008Z,90.40
2017-07-03T01:17:26.680Z,90.00
2017-07-03T01:19:54.227Z,90.40
2017-07-03T01:24:58.377Z,90.20
2017-07-03T01:27:25.905Z,90.00
2017-07-03T01:29:54.237Z,90.10
2017-07-03T01:32:21.786Z,90.10
2017-07-03T01:34:49.308Z,89.80
2017-07-03T01:37:16.861Z,90.70
2017-07-03T01:39:45.184Z,90.10
2017-07-03T01:42:12.703Z,90.10
2017-07-03T01:44:40.236Z,90.20
2017-07-03T01:47:07.792Z,89.90
2017-07-03T01:49:35.328Z,90.20
2017-07-03T01:52:02.889Z,90.40
2017-07-03T01:54:30.400Z,90.40
2017-07-03T01:56:57.936Z,90.10
2017-07-03T01:59:26.280Z,90.30
2017-07-03T02:01:53.806Z,90.20
2017-07-03T02:04:21.345Z,90.30
2017-07-03T02:06:48.930Z,89.70
2017-07-03T02:09:16.456Z,90.40
2017-07-03T02:11:43.990Z,90.30
2017-07-03T02:14:12.332Z,91.00
2017-07-03T02:16:39.856Z,91.00
2017-07-03T02:19:07.403Z,90.50
2017-07-03T02:24:07.887Z,90.30
2017-07-03T02:26:35.447Z,90.70
2017-07-03T02:29:02.984Z,90.60
2017-07-03T02:31:30.572Z,90.00
2017-07-03T02:33:58.325Z,90.40
2017-07-03T02:36:25.856Z,90.70
2017-07-03T02:38:53.378Z,90.80
2017-07-03T02:41:21.724Z,90.50
2017-07-03T02:43:49.261Z,90.50
2017-07-03T02:46:16.776Z,90.50
2017-07-03T02:48:44.329Z,91.20
2017-07-03T02:51:11.868Z,90.50
2017-07-03T02:53:39.428Z,90.20
2017-07-03T02:56:06.997Z,90.60
2017-07-03T02:58:35.291Z,90.50
2017-07-03T03:01:02.803Z,90.50
2017-07-03T03:03:30.356Z,90.90
2017-07-03T03:05:57.876Z,90.40
2017-07-03T03:08:25.436Z,90.20
2017-07-03T03:10:52.969Z,90.80
2017-07-03T03:13:21.265Z,90.70
2017-07-03T03:15:48.829Z,90.70
2017-07-03T03:18:16.348Z,91.10
2017-07-03T03:20:43.865Z,90.60
2017-07-03T03:23:11.437Z,90.30
2017-07-03T03:25:38.962Z,90.70
2017-07-03T03:28:06.494Z,90.50
2017-07-03T03:30:34.813Z,90.40
2017-07-03T03:33:02.327Z,90.40
2017-07-03T03:35:29.897Z,90.20
2017-07-03T03:37:57.430Z,90.70
2017-07-03T03:40:24.957Z,90.50
2017-07-03T03:42:52.517Z,90.60
2017-07-03T03:45:20.037Z,90.80
2017-07-03T03:47:47.563Z,90.90
2017-07-03T03:50:15.901Z,90.50
2017-07-03T03:52:43.458Z,90.50
2017-07-03T03:55:11.026Z,90.80
2017-07-03T03:57:38.540Z,90.00
2017-07-03T04:00:06.101Z,90.00
2017-07-03T04:02:33.620Z,90.20
2017-07-03T04:05:01.172Z,90.10
2017-07-03T04:07:28.736Z,90.10
2017-07-03T04:09:56.260Z,90.10
2017-07-03T04:12:23.820Z,90.80
2017-07-03T04:14:51.348Z,90.20
2017-07-03T04:17:18.877Z,90.30
2017-07-03T04:19:46.436Z,89.80
2017-07-03T04:22:14.719Z,90.60
2017-07-03T04:24:42.240Z,90.50
2017-07-03T04:27:09.791Z,90.30
2017-07-03T04:29:37.380Z,90.90
2017-07-03T04:32:05.709Z,88.60
2017-07-03T04:34:33.260Z,88.50
2017-07-03T04:37:00.865Z,90.70
2017-07-03T04:39:28.429Z,90.80
2017-07-03T04:41:56.778Z,89.70
2017-07-03T04:44:24.340Z,89.60
2017-07-03T04:46:51.860Z,90.50
2017-07-03T04:49:19.430Z,90.70
2017-07-03T04:51:46.965Z,90.80
2017-07-03T04:54:14.537Z,90.20
2017-07-03T04:56:42.089Z,90.50
2017-07-03T04:59:09.624Z,90.40
2017-07-03T05:01:37.948Z,90.10
2017-07-03T05:04:05.489Z,90.00
2017-07-03T05:06:33.068Z,90.40
2017-07-03T05:09:00.604Z,90.60
2017-07-03T05:11:28.129Z,90.90
2017-07-03T05:13:55.709Z,90.50
2017-07-03T05:16:23.256Z,89.00
2017-07-03T05:18:50.796Z,90.50
2017-07-03T05:21:19.161Z,89.80
2017-07-03T05:23:47.489Z,90.10
2017-07-03T05:26:15.014Z,90.10
2017-07-03T05:28:42.612Z,89.50
2017-07-03T05:31:10.149Z,89.40
2017-07-03T05:33:37.703Z,89.70
2017-07-03T05:36:05.272Z,90.00
2017-07-03T05:38:32.799Z,88.30
2017-07-03T05:41:01.152Z,89.00
2017-07-03T05:43:34.345Z,89.00
2017-07-03T05:46:01.916Z,89.50
2017-07-03T05:48:30.212Z,90.10
2017-07-03T05:50:57.748Z,90.10
2017-07-03T05:53:25.319Z,89.70
2017-07-03T05:55:52.858Z,90.00
2017-07-03T05:58:21.188Z,89.30
2017-07-03T06:00:48.785Z,89.80
2017-07-03T06:03:16.330Z,89.40
2017-07-03T06:05:43.885Z,88.20
2017-07-03T06:08:11.479Z,89.70
2017-07-03T06:10:39.570Z,88.40
2017-07-03T06:13:07.137Z,88.70
2017-07-03T06:15:34.682Z,88.80
2017-07-03T06:18:02.217Z,89.30
2017-07-03T06:20:30.575Z,88.20
2017-07-03T06:22:58.107Z,88.60
2017-07-03T06:25:25.627Z,88.80
2017-07-03T06:27:53.973Z,86.50
2017-07-03T06:30:21.502Z,86.40
2017-07-03T06:32:49.071Z,88.50
2017-07-03T06:35:16.617Z,88.30
2017-07-03T06:37:44.146Z,86.50
2017-07-03T06:40:11.730Z,87.80
2017-07-03T06:42:39.264Z,88.00
2017-07-03T06:45:06.795Z,86.60
2017-07-03T06:47:35.108Z,86.40
2017-07-03T06:50:02.647Z,86.20
2017-07-03T06:52:30.190Z,85.30
2017-07-03T06:54:58.511Z,84.00
2017-07-03T06:57:26.036Z,83.90
2017-07-03T06:59:53.554Z,85.90
2017-07-03T07:02:21.130Z,86.10
2017-07-03T07:04:48.652Z,84.90
2017-07-03T07:07:16.180Z,86.80
2017-07-03T07:09:43.745Z,84.60
2017-07-03T07:12:11.272Z,84.70
2017-07-03T07:14:39.558Z,85.10
2017-07-03T07:17:07.136Z,85.10
2017-07-03T07:19:34.677Z,85.60
2017-07-03T07:22:02.227Z,86.10
2017-07-03T07:24:30.549Z,84.80
2017-07-03T07:26:58.154Z,84.70
2017-07-03T07:29:26.439Z,82.30
2017-07-03T07:31:54.002Z,82.10
2017-07-03T07:34:21.519Z,82.20
2017-07-03T07:36:49.038Z,82.00
2017-07-03T07:39:16.592Z,82.50
2017-07-03T07:41:44.112Z,82.90
2017-07-03T07:44:11.747Z,85.30
2017-07-03T07:46:39.304Z,83.20
2017-07-03T07:49:06.813Z,81.50
2017-07-03T07:51:34.360Z,82.70
2017-07-03T07:54:01.907Z,82.60
2017-07-03T07:56:29.484Z,83.70
2017-07-03T07:58:56.995Z,82.70
2017-07-03T08:01:24.500Z,82.50
2017-07-03T08:03:52.060Z,81.00
2017-07-03T08:06:19.604Z,80.40
2017-07-03T08:08:47.935Z,80.60
2017-07-03T08:11:15.455Z,80.70
2017-07-03T08:13:42.981Z,80.40
2017-07-03T08:16:11.315Z,81.70
2017-07-03T08:18:38.849Z,81.60
2017-07-03T08:21:06.373Z,80.40
2017-07-03T08:23:33.938Z,81.30
2017-07-03T08:26:01.460Z,81.00
2017-07-03T08:28:28.985Z,78.20
2017-07-03T08:30:56.550Z,79.20
2017-07-03T08:33:24.071Z,79.20
2017-07-03T08:35:52.401Z,78.80
2017-07-03T08:38:19.915Z,78.60
2017-07-03T08:40:47.443Z,78.10
2017-07-03T08:43:15.001Z,80.70
2017-07-03T08:45:42.555Z,77.80
2017-07-03T08:48:10.081Z,77.40
2017-07-03T08:50:37.659Z,77.10
2017-07-03T08:53:05.190Z,77.30
2017-07-03T08:55:32.704Z,78.60
2017-07-03T08:58:01.019Z,77.60
2017-07-03T09:00:28.575Z,77.60
2017-07-03T09:02:56.085Z,77.10
2017-07-03T09:05:24.387Z,75.30
2017-07-03T09:07:51.949Z,74.80
2017-07-03T09:10:19.476Z,74.70
2017-07-03T09:12:47.001Z,75.60
2017-07-03T09:15:14.555Z,76.40
2017-07-03T09:17:42.124Z,72.00
2017-07-03T09:20:09.650Z,74.30
2017-07-03T09:22:37.169Z,72.90
2017-07-03T09:25:04.747Z,72.90
2017-07-03T09:27:32.262Z,73.80
2017-07-03T09:29:59.768Z,73.20
2017-07-03T09:32:27.327Z,71.90
2017-07-03T09:34:54.855Z,72.70
2017-07-03T09:37:23.128Z,71.00
2017-07-03T09:39:51.469Z,71.10
2017-07-03T09:42:18.975Z,71.00
2017-07-03T09:44:46.488Z,70.20
2017-07-03T09:47:14.041Z,64.20
2017-07-03T09:49:41.602Z,65.30
2017-07-03T09:52:09.111Z,71.40
2017-07-03T09:54:36.638Z,66.80
2017-07-03T09:57:04.206Z,60.70
2017-07-03T09:59:32.485Z,63.90
2017-07-03T10:02:00.003Z,63.70
2017-07-03T10:04:27.568Z,69.30
2017-07-03T10:06:55.092Z,60.80
2017-07-03T10:09:22.617Z,62.90
2017-07-03T10:11:50.176Z,60.60
2017-07-03T10:14:17.689Z,66.20
2017-07-03T10:16:45.206Z,64.90
2017-07-03T10:19:12.764Z,63.00
2017-07-03T10:21:40.296Z,62.20
2017-07-03T10:24:07.820Z,59.80
2017-07-03T10:26:35.405Z,60.30
2017-07-03T10:29:02.934Z,66.00
2017-07-03T10:31:30.458Z,64.50
2017-07-03T10:33:58.023Z,59.30
2017-07-03T10:36:25.560Z,59.20
2017-07-03T10:38:53.087Z,64.30
2017-07-03T10:41:20.649Z,65.60
2017-07-03T10:43:48.177Z,64.20
2017-07-03T10:46:15.721Z,61.50
2017-07-03T10:48:43.292Z,59.70
2017-07-03T10:51:10.816Z,60.50
2017-07-03T10:53:38.352Z,57.70
2017-07-03T10:56:05.928Z,63.00
2017-07-03T10:58:33.447Z,60.20
2017-07-03T11:01:00.988Z,57.70
2017-07-03T11:03:28.563Z,56.90
2017-07-03T11:05:56.108Z,58.40
2017-07-03T11:08:23.656Z,57.90
2017-07-03T11:10:51.185Z,55.20
2017-07-03T11:13:19.049Z,55.30
2017-07-03T11:15:46.602Z,56.40
2017-07-03T11:18:14.132Z,56.90
2017-07-03T11:20:42.477Z,55.30
2017-07-03T11:23:10.025Z,55.30
2017-07-03T11:25:37.576Z,55.70
2017-07-03T11:28:05.108Z,56.70
2017-07-03T11:30:32.675Z,59.60
2017-07-03T11:33:00.225Z,61.00
2017-07-03T11:35:27.770Z,55.90
2017-07-03T11:37:55.347Z,56.30
2017-07-03T11:40:22.876Z,55.80
2017-07-03T11:42:51.175Z,57.90
2017-07-03T11:45:18.757Z,57.90
2017-07-03T11:47:46.279Z,57.50
2017-07-03T11:50:14.555Z,58.30
2017-07-03T11:52:42.909Z,59.40
2017-07-03T11:55:11.219Z,60.50
2017-07-03T11:57:38.744Z,59.80
2017-07-03T12:00:06.305Z,58.30
2017-07-03T12:02:34.609Z,61.30
2017-07-03T12:05:02.168Z,61.10
2017-07-03T12:07:29.872Z,61.00
2017-07-03T12:09:57.429Z,61.80
2017-07-03T12:12:24.957Z,61.30
2017-07-03T12:14:52.550Z,63.40
2017-07-03T12:17:20.078Z,61.80
2017-07-03T12:19:47.601Z,64.30
2017-07-03T12:22:15.937Z,62.70
2017-07-03T12:24:43.489Z,62.50
2017-07-03T12:27:11.012Z,62.60
2017-07-03T12:29:38.582Z,62.10
2017-07-03T12:32:06.125Z,63.40
2017-07-03T12:34:33.870Z,61.40
2017-07-03T12:37:01.674Z,59.50
2017-07-03T12:39:29.189Z,59.40
2017-07-03T12:41:56.705Z,60.70
2017-07-03T12:44:24.268Z,59.60
2017-07-03T12:46:51.815Z,61.40
2017-07-03T12:49:19.373Z,59.50
2017-07-03T12:51:46.892Z,59.60
2017-07-03T12:54:15.389Z,59.80
2017-07-03T12:56:42.913Z,58.50
2017-07-03T12:59:11.212Z,59.20
2017-07-03T13:01:38.770Z,59.10
2017-07-03T13:04:06.358Z,58.80
2017-07-03T13:06:33.878Z,57.50
2017-07-03T13:09:01.404Z,58.10
2017-07-03T13:11:28.975Z,59.10
2017-07-03T13:13:57.308Z,59.20
2017-07-03T13:16:24.840Z,59.20
2017-07-03T13:18:52.402Z,56.40
2017-07-03T13:21:19.917Z,57.10
2017-07-03T13:23:48.213Z,60.00
2017-07-03T13:26:15.758Z,60.00
2017-07-03T13:28:44.048Z,55.80
2017-07-03T13:31:11.608Z,55.70
2017-07-03T13:33:39.137Z,56.40
2017-07-03T13:36:07.419Z,56.10
2017-07-03T13:38:35.761Z,56.10
2017-07-03T13:41:03.304Z,56.00
2017-07-03T13:43:30.827Z,54.20
2017-07-03T13:45:58.383Z,54.10
2017-07-03T13:48:26.267Z,56.00
2017-07-03T13:50:53.784Z,54.30
2017-07-03T13:53:21.356Z,54.60
2017-07-03T13:55:48.932Z,55.60
2017-07-03T13:58:16.459Z,52.30
2017-07-03T14:00:43.988Z,54.00
2017-07-03T14:03:11.545Z,52.40
2017-07-03T14:05:39.105Z,53.50
2017-07-03T14:08:06.650Z,52.70
2017-07-03T14:10:34.215Z,52.70
2017-07-03T14:13:01.742Z,53.80
2017-07-03T14:15:29.261Z,52.50
2017-07-03T14:17:56.936Z,51.60
2017-07-03T14:20:25.229Z,52.10
2017-07-03T14:22:52.752Z,52.10
2017-07-03T14:25:20.330Z,53.20
2017-07-03T14:27:47.861Z,52.30
2017-07-03T14:30:15.384Z,52.30
2017-07-03T14:32:42.951Z,51.80
2017-07-03T14:35:10.481Z,51.40
2017-07-03T14:37:38.048Z,51.20
2017-07-03T14:40:05.568Z,51.60
2017-07-03T14:42:33.949Z,52.00
2017-07-03T14:45:02.314Z,50.60
2017-07-03T14:47:30.622Z,51.70
2017-07-03T14:49:58.149Z,51.60
2017-07-03T14:52:26.476Z,50.30
2017-07-03T14:54:53.997Z,50.30
2017-07-03T14:57:22.301Z,49.00
2017-07-03T14:59:49.874Z,48.80
2017-07-03T15:02:17.396Z,51.60
2017-07-03T15:04:44.932Z,51.00
2017-07-03T15:07:13.300Z,53.40
2017-07-03T15:09:41.594Z,50.60
2017-07-03T15:12:09.891Z,49.90
2017-07-03T15:14:37.457Z,49.90
2017-07-03T15:17:05.005Z,51.60
2017-07-03T15:19:32.537Z,50.20
2017-07-03T15:22:00.884Z,49.00
2017-07-03T15:24:28.404Z,49.00
2017-07-03T15:26:55.939Z,48.60
2017-07-03T15:29:24.269Z,50.50
2017-07-03T15:31:51.812Z,50.40
2017-07-03T15:34:19.357Z,49.40
2017-07-03T15:36:46.925Z,50.60
2017-07-03T15:39:14.469Z,49.60
2017-07-03T15:41:41.995Z,50.40
2017-07-03T15:44:10.328Z,49.10
2017-07-03T15:46:37.870Z,49.10
2017-07-03T15:49:05.392Z,49.80
2017-07-03T15:51:33.719Z,51.90
2017-07-03T15:54:01.232Z,51.80
2017-07-03T15:56:28.750Z,51.70
2017-07-03T15:58:56.321Z,50.60
2017-07-03T16:01:23.865Z,50.80
2017-07-03T16:03:51.394Z,51.80
2017-07-03T16:06:18.950Z,50.10
2017-07-03T16:08:46.513Z,51.60
2017-07-03T16:11:14.030Z,50.70
2017-07-03T16:13:41.619Z,51.30
2017-07-03T16:16:09.152Z,51.20
2017-07-03T16:18:36.688Z,51.40
2017-07-03T16:21:04.260Z,50.70
2017-07-03T16:23:32.548Z,51.50
2017-07-03T16:26:00.086Z,51.40
2017-07-03T16:28:27.669Z,51.30
2017-07-03T16:30:55.223Z,50.70
2017-07-03T16:33:22.751Z,50.80
2017-07-03T16:35:50.942Z,50.90
2017-07-03T16:38:18.556Z,52.30
2017-07-03T16:40:46.079Z,52.80
2017-07-03T16:43:13.690Z,54.80
2017-07-03T16:45:41.208Z,54.60
2017-07-03T16:48:08.744Z,52.70
2017-07-03T16:50:36.516Z,52.50
2017-07-03T16:53:04.052Z,54.00
2017-07-03T16:55:31.706Z,54.90
2017-07-03T16:57:59.292Z,54.80
2017-07-03T17:00:26.886Z,52.70
2017-07-03T17:02:54.732Z,52.70
2017-07-03T17:05:22.265Z,53.60
2017-07-03T17:07:49.776Z,54.70
2017-07-03T17:10:17.339Z,54.20
2017-07-03T17:12:44.884Z,53.40
2017-07-03T17:15:12.470Z,53.70
2017-07-03T17:17:40.874Z,53.10
2017-07-03T17:20:09.395Z,53.00
2017-07-03T17:22:37.801Z,55.20
2017-07-03T17:25:05.379Z,55.20
2017-07-03T17:27:33.700Z,55.30
2017-07-03T17:30:01.348Z,55.30
2017-07-03T17:32:28.907Z,53.40
2017-07-03T17:34:56.476Z,53.00
2017-07-03T17:37:24.004Z,56.60
2017-07-03T17:39:51.528Z,55.00
2017-07-03T17:42:19.916Z,53.50
2017-07-03T17:44:47.522Z,53.50
2017-07-03T17:47:15.052Z,54.00
2017-07-03T17:49:42.664Z,55.30
2017-07-03T17:52:10.214Z,54.10
2017-07-03T17:54:37.833Z,54.90
2017-07-03T17:57:05.506Z,56.00
2017-07-03T17:59:33.209Z,56.10
2017-07-03T18:02:01.633Z,57.40
2017-07-03T18:04:29.278Z,57.30
2017-07-03T18:06:56.931Z,57.30
2017-07-03T18:09:24.524Z,58.00
2017-07-03T18:11:52.198Z,57.70
2017-07-03T18:14:19.836Z,59.70
2017-07-03T18:16:47.430Z,61.60
2017-07-03T18:19:15.029Z,59.10
2017-07-03T18:21:42.603Z,60.10
2017-07-03T18:24:10.134Z,62.40
2017-07-03T18:26:37.693Z,64.50
2017-07-03T18:29:06.038Z,68.00
2017-07-03T18:31:33.577Z,67.90
2017-07-03T18:34:01.123Z,68.30
2017-07-03T18:36:28.691Z,68.40
2017-07-03T18:38:56.213Z,68.70
2017-07-03T18:41:24.536Z,68.90
2017-07-03T18:43:52.108Z,68.70
2017-07-03T18:46:19.636Z,69.60
2017-07-03T18:48:47.183Z,70.80
2017-07-03T18:51:14.771Z,69.90
2017-07-03T18:53:42.306Z,71.10
2017-07-03T18:56:09.833Z,72.20
2017-07-03T18:58:37.431Z,72.10
2017-07-03T19:01:04.964Z,72.70
2017-07-03T19:03:32.508Z,72.50
2017-07-03T19:06:00.840Z,72.80
2017-07-03T19:08:28.381Z,72.60
2017-07-03T19:10:55.966Z,72.90
2017-07-03T19:13:23.555Z,72.10
2017-07-03T19:15:51.855Z,72.10
2017-07-03T19:18:19.434Z,72.10
2017-07-03T19:20:47.094Z,73.30
2017-07-03T19:23:14.661Z,73.20
2017-07-03T19:25:42.233Z,73.10
2017-07-03T19:28:09.861Z,72.90
2017-07-03T19:30:37.400Z,74.00
2017-07-03T19:33:05.003Z,73.90
2017-07-03T19:35:32.621Z,74.40
2017-07-03T19:38:00.200Z,74.10
2017-07-03T19:40:27.848Z,74.30
2017-07-03T19:42:55.433Z,74.90
2017-07-03T19:45:23.099Z,74.50
2017-07-03T19:47:50.681Z,74.20
2017-07-03T19:50:19.017Z,74.80
2017-07-03T19:52:46.556Z,74.60
2017-07-03T19:55:14.148Z,75.20
2017-07-03T19:57:41.669Z,74.90
2017-07-03T20:00:09.210Z,76.10
2017-07-03T20:02:36.824Z,75.80
2017-07-03T20:05:04.373Z,75.80
2017-07-03T20:07:31.955Z,75.90
2017-07-03T20:09:59.542Z,75.00
2017-07-03T20:12:27.842Z,75.20
2017-07-03T20:14:55.400Z,75.10
2017-07-03T20:17:23.036Z,73.90
2017-07-03T20:19:50.573Z,74.00
2017-07-03T20:22:18.910Z,73.80
2017-07-03T20:24:46.546Z,73.70
2017-07-03T20:27:14.075Z,74.30
2017-07-03T20:29:41.636Z,74.80
2017-07-03T20:32:10.061Z,76.10
2017-07-03T20:34:37.671Z,75.90
2017-07-03T20:37:05.961Z,75.80
2017-07-03T20:39:33.505Z,75.70
2017-07-03T20:42:01.882Z,72.80
2017-07-03T20:44:30.201Z,72.60
2017-07-03T20:46:57.784Z,72.50
2017-07-03T20:49:26.171Z,73.10
2017-07-03T20:51:53.722Z,72.90
2017-07-03T20:54:21.273Z,74.50
2017-07-03T20:56:48.855Z,74.60
2017-07-03T20:59:16.400Z,74.90
2017-07-03T21:01:43.934Z,73.70
2017-07-03T21:04:11.529Z,73.70
2017-07-03T21:06:39.053Z,73.00
2017-07-03T21:09:06.601Z,73.10
2017-07-03T21:11:34.240Z,74.70
2017-07-03T21:14:01.774Z,74.00
2017-07-03T21:16:30.125Z,74.60
2017-07-03T21:18:57.711Z,74.50
2017-07-03T21:21:26.189Z,75.50
2017-07-03T21:23:53.777Z,75.40
2017-07-03T21:26:21.401Z,76.10
2017-07-03T21:28:49.702Z,77.00
2017-07-03T21:31:17.232Z,76.90
2017-07-03T21:33:44.794Z,76.80
2017-07-03T21:36:12.316Z,76.80
2017-07-03T21:38:39.841Z,76.60
2017-07-03T21:41:07.409Z,76.00
2017-07-03T21:43:34.939Z,76.50
2017-07-03T21:46:03.219Z,76.90
2017-07-03T21:48:30.785Z,76.80
2017-07-03T21:50:58.305Z,75.50
2017-07-03T21:53:25.837Z,76.10
2017-07-03T21:55:53.522Z,76.80
2017-07-03T21:58:21.093Z,77.20
2017-07-03T22:00:48.677Z,77.10
2017-07-03T22:03:18.156Z,77.90
2017-07-03T22:05:47.624Z,76.70
2017-07-03T22:08:15.222Z,78.30
2017-07-03T22:10:42.767Z,77.80
2017-07-03T22:13:10.369Z,78.60
2017-07-03T22:15:37.900Z,78.80
2017-07-03T22:18:06.186Z,77.90
2017-07-03T22:20:33.748Z,77.80
2017-07-03T22:23:01.277Z,78.70
2017-07-03T22:25:28.798Z,79.90
2017-07-03T22:27:56.363Z,78.60
2017-07-03T22:30:23.892Z,78.30
2017-07-03T22:32:51.417Z,77.80
2017-07-03T22:35:19.765Z,77.70
2017-07-03T22:37:47.311Z,77.60
2017-07-03T22:40:14.823Z,78.30
2017-07-03T22:42:42.383Z,78.30
2017-07-03T22:45:09.908Z,78.10
2017-07-03T22:47:37.428Z,77.60
2017-07-03T22:50:04.996Z,77.60
2017-07-03T22:52:32.520Z,78.30
2017-07-03T22:55:00.088Z,78.70
2017-07-03T22:57:27.672Z,78.70
2017-07-03T22:59:55.197Z,77.90
2017-07-03T23:02:22.732Z,79.00
2017-07-03T23:04:51.048Z,79.70
2017-07-03T23:07:18.573Z,79.60
2017-07-03T23:09:46.904Z,79.60
2017-07-03T23:12:14.437Z,79.60
2017-07-03T23:14:42.012Z,79.80
2017-07-03T23:17:09.588Z,79.90
2017-07-03T23:19:37.125Z,80.10
2017-07-03T23:22:04.660Z,80.50
2017-07-03T23:24:32.234Z,80.60
2017-07-03T23:26:59.749Z,80.50
2017-07-03T23:29:27.281Z,80.70
2017-07-03T23:31:55.624Z,80.40
2017-07-03T23:34:23.160Z,80.30
2017-07-03T23:36:50.685Z,80.30
2017-07-03T23:39:18.264Z,79.70
2017-07-03T23:41:45.801Z,79.70
2017-07-03T23:44:14.096Z,80.00
2017-07-03T23:46:41.652Z,80.10
2017-07-03T23:49:09.168Z,80.00
2017-07-03T23:51:36.728Z,79.90
2017-07-03T23:54:04.258Z,79.00
2017-07-03T23:56:31.792Z,79.00
2017-07-03T23:58:59.373Z,79.80
